Airfield :
LOGIN :

Register | Disclaimer

   EN    FR    IT 

 










Legend :    VFR   Marginal VFR   IFR   Intensive IFR   Very Intensive IFR
Visi :
Ceiling :
>= 8 km
>= 3000ft
5 to 8 km
1000 to 3000 ft
1500m to 5 km
500 to 1000 ft
800 to 1500m
200 to 500 ft
< 800m
< 200 ft
Symbols :   Thunderstorms  Fog  Heavy snow  Heavy precipitations  Wind > 20 kt
SIGMETs :     Misc.  Thunderstorms  Icing  Turbulence  Mountain Waves  Volcanic Ashes







- Airport Elevation : 53 ft
- IATA code : HAM


EDDH - Hamburg

CURRENT METAR :
  • 240820Z 15008KT 100V180 CAVOK 27/15 Q1018 NOSIG

EXPIRED METARs :
  • 240750Z 12008KT 080V150 CAVOK 26/15 Q1018 NOSIG
  • 240720Z 13008KT 110V170 CAVOK 26/16 Q1018 NOSIG
  • 240650Z 13007KT CAVOK 25/16 Q1018 NOSIG
  • 240620Z 12007KT 100V160 CAVOK 24/16 Q1018 NOSIG
  • 240550Z 13006KT 090V170 CAVOK 23/17 Q1018 NOSIG

TAF TAF EDDH
Valid from the 24 at 06:00 until the 25 at 12:00 UTC


240500Z 2406/2512 11007KT CAVOK
No reported NOTAMs for that airfield.



MET'MAP, your aeronautical weather chart ! - Copyright ORBIFLY December 2007 - Disclaimer

ORBIFLY MET'MAP TEAM :

Programming & Development : Alexandra Zaïnal
Concept & Development : Baudouin d'Aumeries
Co-Development & Prog : Marc-Olivier Méhu
Technical & hardware support : Manuel Goepfert

Contact : metmap@orbifly.com




SOURCES & CREDITS :

   NOAA